Time;durP1;ratioP1;P1;durP2;ratioP2;P2;SDS_P1;SDS_P2;PMS_P1;PMS_P2;Temp;Humidity;BMP_temperature;BMP_pressure;BME280_temperature;BME280_humidity;BME280_pressure;Samples;Min_cycle;Max_cycle;Signal;HPM_P1;HPM_P2
2021/09/12 00:01:36;;;;;;;8.50;3.80;;;;;;;30.20;17.69;94459.47;5014368;28;20049;-57
2021/09/12 00:04:03;;;;;;;7.25;3.60;;;;;;;30.20;17.76;94448.66;5014993;28;20054;-58
2021/09/12 00:06:30;;;;;;;4.28;3.30;;;;;;;30.20;17.71;94458.69;5014580;28;20053;-56
2021/09/12 00:08:57;;;;;;;4.45;3.70;;;;;;;30.16;17.70;94455.25;5014515;28;20364;-55
2021/09/12 00:11:24;;;;;;;4.53;3.53;;;;;;;30.15;17.80;94456.44;5014387;28;20045;-55
2021/09/12 00:13:52;;;;;;;7.88;4.28;;;;;;;30.27;17.46;94455.88;5014526;28;20049;-55
2021/09/12 00:16:19;;;;;;;6.38;4.47;;;;;;;30.17;17.50;94456.78;5013982;28;20425;-56
2021/09/12 00:18:46;;;;;;;9.73;4.13;;;;;;;30.02;17.78;94448.91;5015045;28;20529;-53
2021/09/12 00:21:13;;;;;;;5.03;3.90;;;;;;;30.14;17.63;94463.00;5014218;28;20053;-58
2021/09/12 00:23:40;;;;;;;5.43;3.83;;;;;;;30.11;17.65;94455.75;5014438;28;20058;-58
2021/09/12 00:26:07;;;;;;;4.93;3.30;;;;;;;30.24;17.58;94454.00;5029087;28;20061;-57
2021/09/12 00:28:35;;;;;;;4.97;3.40;;;;;;;30.17;17.85;94454.84;5012730;28;20551;-55
2021/09/12 00:31:02;;;;;;;5.45;3.67;;;;;;;29.99;18.03;94455.13;5013951;28;20157;-56
2021/09/12 00:33:31;;;;;;;6.03;3.80;;;;;;;30.00;17.93;94456.66;5013307;28;20052;-53
2021/09/12 00:35:58;;;;;;;6.40;4.00;;;;;;;29.88;18.26;94448.34;5014245;28;20042;-54
2021/09/12 00:38:26;;;;;;;7.15;4.10;;;;;;;30.11;17.86;94459.19;5017249;28;20061;-57
2021/09/12 00:40:57;;;;;;;7.50;3.42;;;;;;;29.94;17.93;94457.53;5033145;28;20046;-55
2021/09/12 00:43:25;;;;;;;5.18;3.83;;;;;;;29.86;18.21;94456.84;5017731;28;20072;-54
2021/09/12 00:45:57;;;;;;;7.53;4.10;;;;;;;29.80;18.47;94447.69;5017445;28;20046;-58
2021/09/12 00:48:24;;;;;;;6.07;3.80;;;;;;;29.69;18.30;94461.34;5016460;28;20053;-57
2021/09/12 00:50:52;;;;;;;4.72;3.67;;;;;;;29.74;18.24;94457.41;5005655;28;20129;-58
2021/09/12 00:53:21;;;;;;;5.93;4.15;;;;;;;29.70;18.18;94456.72;4997958;28;20046;-54
2021/09/12 00:55:48;;;;;;;5.65;3.90;;;;;;;29.67;18.49;94454.81;4997888;28;20057;-54
2021/09/12 00:58:16;;;;;;;4.03;3.25;;;;;;;29.72;18.35;94459.75;5011001;28;20057;-53
2021/09/12 01:00:44;;;;;;;6.80;4.25;;;;;;;29.75;18.35;94453.56;5017291;28;20053;-60
2021/09/12 01:03:11;;;;;;;4.28;3.53;;;;;;;29.63;18.34;94459.47;5017377;28;20045;-57
2021/09/12 01:05:39;;;;;;;5.35;3.63;;;;;;;29.60;18.57;94465.69;5016986;28;20049;-56
2021/09/12 01:08:07;;;;;;;4.97;3.55;;;;;;;29.61;18.45;94451.03;5016705;28;20050;-59
2021/09/12 01:10:37;;;;;;;4.90;3.78;;;;;;;29.72;18.54;94454.38;5016795;28;20045;-60
2021/09/12 01:13:05;;;;;;;4.13;3.67;;;;;;;29.54;18.32;94456.53;5032275;28;20050;-60
2021/09/12 01:15:32;;;;;;;4.13;3.65;;;;;;;29.70;18.44;94459.41;5016953;28;20057;-56
2021/09/12 01:18:00;;;;;;;4.43;3.50;;;;;;;29.50;18.69;94458.50;5015705;28;20046;-54
2021/09/12 01:20:27;;;;;;;5.97;3.70;;;;;;;29.56;18.77;94459.56;5016758;28;20061;-52
2021/09/12 01:22:54;;;;;;;9.18;3.67;;;;;;;29.49;18.70;94459.69;5017211;28;20052;-55
2021/09/12 01:25:21;;;;;;;5.97;3.80;;;;;;;29.50;18.65;94453.88;5016656;28;20050;-55
2021/09/12 01:27:48;;;;;;;4.63;3.55;;;;;;;29.30;18.74;94459.09;5015962;28;20042;-55
2021/09/12 01:30:15;;;;;;;5.30;3.55;;;;;;;29.25;18.62;94459.56;5016569;28;20061;-56
2021/09/12 01:32:43;;;;;;;3.60;3.13;;;;;;;29.45;18.09;94455.09;5016942;28;20050;-52
2021/09/12 01:35:10;;;;;;;4.65;2.85;;;;;;;29.38;18.66;94460.53;5016863;28;20056;-54
2021/09/12 01:37:37;;;;;;;4.25;3.10;;;;;;;29.46;18.50;94461.25;5016647;28;20048;-51
2021/09/12 01:40:05;;;;;;;4.82;2.85;;;;;;;29.28;18.55;94450.66;5016182;28;20356;-55
2021/09/12 01:42:32;;;;;;;6.20;3.17;;;;;;;29.11;18.67;94457.78;5016355;28;20052;-53
2021/09/12 01:44:59;;;;;;;4.45;3.15;;;;;;;29.37;18.37;94464.38;5017196;28;20050;-55
2021/09/12 01:47:26;;;;;;;4.60;3.10;;;;;;;29.19;18.82;94449.63;5015012;28;20053;-54
2021/09/12 01:49:53;;;;;;;5.60;3.80;;;;;;;29.33;18.43;94452.91;5016153;28;20049;-53
2021/09/12 01:52:20;;;;;;;5.93;3.22;;;;;;;29.29;18.38;94456.81;5016256;28;20053;-55
2021/09/12 01:54:47;;;;;;;3.67;3.20;;;;;;;29.20;18.59;94451.94;5016256;28;20053;-52
2021/09/12 01:57:15;;;;;;;5.65;3.00;;;;;;;29.24;18.47;94455.34;5015443;28;20046;-54
2021/09/12 01:59:42;;;;;;;5.80;2.75;;;;;;;29.13;18.65;94450.06;5015067;28;20049;-53
2021/09/12 02:02:09;;;;;;;4.47;2.90;;;;;;;29.28;18.70;94456.06;5016396;28;20080;-55
2021/09/12 02:04:36;;;;;;;5.85;3.05;;;;;;;29.31;18.54;94463.31;5006347;28;20081;-52
2021/09/12 02:07:03;;;;;;;6.45;3.08;;;;;;;29.23;18.86;94458.44;4996288;28;20053;-55
2021/09/12 02:09:31;;;;;;;3.45;2.67;;;;;;;29.18;18.67;94459.66;5014473;28;20049;-52
2021/09/12 02:11:58;;;;;;;3.20;2.83;;;;;;;29.18;18.61;94462.34;5015417;28;20049;-53
2021/09/12 02:14:25;;;;;;;3.67;2.60;;;;;;;29.16;18.98;94472.75;5016383;28;20045;-54
2021/09/12 02:16:52;;;;;;;4.95;3.00;;;;;;;29.10;19.11;94460.88;5016666;28;20437;-53
2021/09/12 02:19:19;;;;;;;6.63;2.85;;;;;;;29.16;19.03;94459.28;5014571;28;20453;-52
2021/09/12 02:21:46;;;;;;;3.72;2.85;;;;;;;29.09;18.96;94464.72;5015942;28;20064;-54
2021/09/12 02:24:13;;;;;;;3.72;2.95;;;;;;;29.26;18.86;94461.09;5016669;28;20048;-54
2021/09/12 02:26:40;;;;;;;4.22;2.83;;;;;;;29.14;18.75;94453.50;5014824;28;20049;-54
2021/09/12 02:29:07;;;;;;;4.78;3.00;;;;;;;29.02;19.21;94454.06;5015317;28;20357;-54
2021/09/12 02:31:35;;;;;;;6.47;3.13;;;;;;;29.21;18.90;94456.16;5015801;28;20053;-55
2021/09/12 02:34:02;;;;;;;5.28;3.10;;;;;;;29.18;18.97;94454.25;5015609;28;20049;-54
2021/09/12 02:36:29;;;;;;;3.15;2.75;;;;;;;29.02;19.04;94459.44;5014259;28;20053;-57
2021/09/12 02:38:56;;;;;;;5.32;2.97;;;;;;;28.97;18.98;94462.56;5015449;28;20058;-56
2021/09/12 02:41:23;;;;;;;3.75;3.28;;;;;;;28.89;18.73;94453.03;5015493;28;20046;-57
2021/09/12 02:43:50;;;;;;;6.45;3.22;;;;;;;29.03;18.80;94445.56;5015455;28;20053;-55
2021/09/12 02:46:17;;;;;;;6.22;3.75;;;;;;;28.92;19.05;94446.88;5015238;28;20045;-54
2021/09/12 02:48:44;;;;;;;4.22;3.00;;;;;;;28.93;19.12;94440.31;5014689;28;20046;-58
2021/09/12 02:51:12;;;;;;;6.50;3.65;;;;;;;28.90;19.00;94447.28;5015414;28;20045;-56
2021/09/12 02:53:39;;;;;;;5.20;3.40;;;;;;;29.21;18.77;94450.00;5015262;28;20060;-55
2021/09/12 02:56:08;;;;;;;3.75;3.17;;;;;;;29.11;18.63;94443.56;5015055;28;20357;-58
2021/09/12 02:58:36;;;;;;;5.55;3.47;;;;;;;29.06;18.82;94439.38;5013815;28;20050;-55
2021/09/12 03:01:03;;;;;;;4.45;3.13;;;;;;;29.19;18.83;94445.03;5015039;28;20052;-60
2021/09/12 03:03:30;;;;;;;5.20;3.53;;;;;;;29.13;18.75;94441.22;5015080;28;20492;-55
2021/09/12 03:05:58;;;;;;;6.00;3.50;;;;;;;29.18;18.92;94448.88;5015013;28;20042;-55
2021/09/12 03:08:25;;;;;;;5.47;3.67;;;;;;;28.89;19.29;94444.97;5013892;28;20050;-54
2021/09/12 03:10:52;;;;;;;4.53;2.83;;;;;;;28.78;19.49;94451.19;5015052;28;20042;-56
2021/09/12 03:13:19;;;;;;;4.57;3.13;;;;;;;28.88;19.29;94459.56;5015000;28;20057;-55
2021/09/12 03:15:47;;;;;;;5.30;3.28;;;;;;;28.96;19.26;94456.44;5014851;28;20056;-59
2021/09/12 03:18:14;;;;;;;4.47;3.55;;;;;;;28.77;18.98;94465.06;5014590;28;20049;-57
2021/09/12 03:20:42;;;;;;;4.57;3.15;;;;;;;28.66;19.39;94465.16;5015315;28;20069;-58
2021/09/12 03:23:09;;;;;;;6.75;3.70;;;;;;;28.73;18.83;94459.72;5014933;28;20045;-52
2021/09/12 03:25:36;;;;;;;4.72;3.58;;;;;;;28.75;18.94;94460.06;5014821;28;20054;-52
2021/09/12 03:28:03;;;;;;;5.70;3.17;;;;;;;28.68;19.32;94460.16;5013965;28;20483;-53
2021/09/12 03:30:30;;;;;;;6.68;3.70;;;;;;;28.78;18.89;94458.50;5014299;28;20732;-54
2021/09/12 03:32:57;;;;;;;6.05;3.63;;;;;;;28.77;18.96;94465.06;5013748;28;20061;-54
2021/09/12 03:35:24;;;;;;;6.78;3.30;;;;;;;28.65;19.05;94460.19;4995071;28;20046;-53
2021/09/12 03:37:52;;;;;;;4.95;3.80;;;;;;;28.72;18.96;94463.56;4997180;28;20050;-54
2021/09/12 03:40:19;;;;;;;6.20;3.80;;;;;;;28.78;19.00;94461.19;5013970;28;20054;-53
2021/09/12 03:42:46;;;;;;;6.53;3.80;;;;;;;28.72;19.10;94458.19;5014453;28;20065;-52
2021/09/12 03:45:13;;;;;;;5.75;3.80;;;;;;;28.61;19.74;94454.81;5014692;28;20449;-53
2021/09/12 03:47:40;;;;;;;4.82;3.60;;;;;;;28.70;19.39;94454.38;5014648;28;20050;-54
2021/09/12 03:50:07;;;;;;;6.70;3.70;;;;;;;28.65;19.40;94462.88;5014583;28;20045;-55
2021/09/12 03:52:35;;;;;;;5.20;3.58;;;;;;;28.49;19.47;94460.72;5014201;28;20368;-55
2021/09/12 03:55:02;;;;;;;6.47;4.30;;;;;;;28.41;19.61;94459.25;5014509;28;20049;-55
2021/09/12 03:57:29;;;;;;;7.18;3.85;;;;;;;28.51;19.35;94455.69;5014030;28;20068;-54
2021/09/12 03:59:56;;;;;;;7.22;4.50;;;;;;;28.50;19.70;94462.25;5013351;28;20052;-55
2021/09/12 04:02:23;;;;;;;7.85;4.07;;;;;;;28.54;19.30;94460.28;5014664;28;20042;-55
2021/09/12 04:04:50;;;;;;;7.22;4.18;;;;;;;28.82;19.04;94462.69;5014570;28;20050;-53
2021/09/12 04:07:17;;;;;;;7.53;4.00;;;;;;;28.67;19.14;94471.31;5014416;28;20476;-54
2021/09/12 04:09:44;;;;;;;6.32;3.70;;;;;;;28.43;19.25;94467.69;5014095;28;20045;-56
2021/09/12 04:12:11;;;;;;;6.05;3.55;;;;;;;28.59;19.41;94467.91;5017884;28;20041;-54
2021/09/12 04:14:38;;;;;;;6.25;3.75;;;;;;;28.56;19.54;94468.69;5016963;28;20389;-56
2021/09/12 04:17:05;;;;;;;7.13;4.03;;;;;;;28.21;20.09;94470.50;5018261;28;20049;-56
2021/09/12 04:19:33;;;;;;;5.20;3.55;;;;;;;28.42;19.98;94477.69;5017829;28;20050;-57
2021/09/12 04:22:00;;;;;;;5.82;3.72;;;;;;;28.45;19.84;94476.13;5017806;28;20042;-53
2021/09/12 04:24:27;;;;;;;6.13;4.20;;;;;;;28.37;19.83;94477.34;5017965;28;20468;-55
2021/09/12 04:26:54;;;;;;;7.05;4.20;;;;;;;28.41;19.93;94476.16;5017279;28;20057;-52
2021/09/12 04:29:22;;;;;;;6.05;3.97;;;;;;;28.47;19.96;94473.78;5017691;28;20050;-60
2021/09/12 04:31:49;;;;;;;7.28;4.00;;;;;;;28.36;20.28;94481.16;5017740;28;20360;-57
2021/09/12 04:34:16;;;;;;;7.10;4.43;;;;;;;28.44;19.93;94477.28;5017905;28;20049;-56
2021/09/12 04:36:43;;;;;;;7.25;4.63;;;;;;;28.19;20.28;94478.22;5017626;28;20049;-57
2021/09/12 04:39:10;;;;;;;10.82;4.85;;;;;;;28.21;20.38;94478.56;5017451;28;20049;-61
2021/09/12 04:41:38;;;;;;;8.23;4.75;;;;;;;28.59;19.67;94475.22;5017391;28;20057;-56
2021/09/12 04:44:05;;;;;;;7.45;4.38;;;;;;;28.62;19.67;94474.41;5017737;28;20041;-58
2021/09/12 04:46:32;;;;;;;8.10;4.38;;;;;;;28.72;19.78;94484.31;5017595;28;20057;-61
2021/09/12 04:48:59;;;;;;;9.20;4.97;;;;;;;28.82;19.83;94478.81;5015889;28;20057;-58
2021/09/12 04:51:26;;;;;;;10.07;5.05;;;;;;;28.80;19.83;94481.16;5017580;28;20483;-59
2021/09/12 04:53:55;;;;;;;10.23;4.68;;;;;;;29.09;19.52;94488.94;5017652;28;20050;-61
2021/09/12 04:56:23;;;;;;;7.47;4.07;;;;;;;29.13;19.42;94486.97;5017297;28;20048;-61
2021/09/12 04:58:50;;;;;;;9.20;4.18;;;;;;;29.42;18.90;94482.81;5000409;28;20055;-58
2021/09/12 05:01:18;;;;;;;6.47;3.88;;;;;;;29.53;18.74;94487.31;5018384;28;20528;-54
2021/09/12 05:03:45;;;;;;;6.70;4.00;;;;;;;29.62;18.45;94490.28;5017236;28;20061;-54
2021/09/12 05:06:12;;;;;;;8.05;4.10;;;;;;;29.88;17.81;94488.75;5003068;28;20050;-53
2021/09/12 05:08:39;;;;;;;9.45;4.40;;;;;;;29.88;17.87;94496.84;4997752;28;20054;-53
2021/09/12 05:11:07;;;;;;;6.22;3.88;;;;;;;30.29;17.51;94493.97;5017506;28;20050;-53
2021/09/12 05:13:36;;;;;;;5.38;4.55;;;;;;;30.10;17.97;94497.34;5017473;28;20053;-55
2021/09/12 05:16:04;;;;;;;8.05;4.28;;;;;;;30.38;17.92;94496.91;5017024;28;20049;-54
2021/09/12 05:18:31;;;;;;;7.97;4.28;;;;;;;30.31;18.18;94502.41;5003200;28;20046;-57
2021/09/12 05:20:59;;;;;;;7.45;4.35;;;;;;;30.39;18.17;94498.41;5015324;28;20049;-55
2021/09/12 05:23:27;;;;;;;6.13;4.28;;;;;;;30.30;18.49;94495.50;5015380;28;20046;-56
2021/09/12 05:25:54;;;;;;;6.93;4.63;;;;;;;30.34;18.30;94501.59;5016688;28;20056;-54
2021/09/12 05:28:22;;;;;;;13.85;5.47;;;;;;;30.46;18.17;94498.31;5016413;28;20057;-54
2021/09/12 05:30:49;;;;;;;10.98;5.50;;;;;;;30.38;18.02;94502.28;5016731;28;20052;-55
2021/09/12 05:33:16;;;;;;;10.20;5.82;;;;;;;30.81;17.76;94502.38;5016618;28;20054;-57
2021/09/12 05:35:43;;;;;;;10.35;5.53;;;;;;;30.70;17.89;94501.78;5016573;28;20046;-55
2021/09/12 05:38:10;;;;;;;7.40;4.90;;;;;;;30.55;18.01;94505.88;5016674;28;20046;-55
2021/09/12 05:40:37;;;;;;;7.07;5.13;;;;;;;30.81;17.86;94504.31;5016260;28;20054;-58
2021/09/12 05:43:04;;;;;;;9.05;5.00;;;;;;;30.68;18.23;94499.50;5016621;28;20052;-56
2021/09/12 05:45:32;;;;;;;9.98;5.00;;;;;;;30.56;18.26;94500.06;5016466;28;20049;-57
2021/09/12 05:47:59;;;;;;;5.90;4.88;;;;;;;31.01;17.69;94505.13;5015521;28;20046;-55
2021/09/12 05:50:26;;;;;;;7.38;4.65;;;;;;;30.74;18.07;94504.44;5005565;28;20465;-57
2021/09/12 05:52:53;;;;;;;7.55;4.97;;;;;;;30.87;17.86;94502.66;4997115;28;20384;-54
2021/09/12 05:55:20;;;;;;;9.98;4.47;;;;;;;31.05;17.62;94500.41;5014506;28;20050;-54
2021/09/12 05:57:47;;;;;;;8.32;5.03;;;;;;;31.12;17.64;94502.97;5015790;28;20329;-56
2021/09/12 06:00:14;;;;;;;6.90;4.75;;;;;;;31.14;17.46;94503.31;5015227;28;20049;-57
2021/09/12 06:02:41;;;;;;;6.45;5.00;;;;;;;31.22;17.38;94496.63;5016116;28;20053;-56
2021/09/12 06:05:09;;;;;;;8.25;4.93;;;;;;;31.65;17.22;94503.88;5015917;28;20056;-55
2021/09/12 06:07:36;;;;;;;8.25;5.03;;;;;;;31.49;17.72;94501.91;5008164;28;20045;-55
2021/09/12 06:10:04;;;;;;;9.98;4.82;;;;;;;31.59;17.70;94500.91;5000260;28;20053;-57
2021/09/12 06:12:31;;;;;;;7.35;4.97;;;;;;;31.98;17.05;94504.75;5015527;28;20448;-56
2021/09/12 06:14:58;;;;;;;7.55;5.15;;;;;;;32.33;16.63;94503.22;5015577;28;20045;-58
2021/09/12 06:17:25;;;;;;;7.53;4.97;;;;;;;32.45;16.79;94510.63;5011794;28;20050;-55
2021/09/12 06:19:52;;;;;;;8.15;5.47;;;;;;;32.47;16.64;94502.84;4996257;28;20054;-59
2021/09/12 06:22:19;;;;;;;11.75;5.15;;;;;;;32.41;16.75;94509.22;5004499;28;20060;-57
2021/09/12 06:24:47;;;;;;;7.07;4.90;;;;;;;32.43;16.69;94504.91;5016323;28;20046;-53
2021/09/12 06:27:14;;;;;;;5.13;4.45;;;;;;;32.65;16.42;94507.09;5015346;28;20057;-54
2021/09/12 06:29:41;;;;;;;7.55;4.80;;;;;;;32.68;16.57;94506.22;5015976;28;20081;-56
2021/09/12 06:32:08;;;;;;;6.32;4.72;;;;;;;33.02;16.15;94509.22;5015472;28;20376;-58
2021/09/12 06:34:35;;;;;;;6.97;4.43;;;;;;;33.20;15.82;94499.88;5014282;28;20052;-54
2021/09/12 06:37:02;;;;;;;7.47;4.68;;;;;;;33.15;16.23;94506.59;5015680;28;20041;-57
2021/09/12 06:39:29;;;;;;;8.25;4.93;;;;;;;32.92;16.36;94507.56;5015781;28;20048;-56
2021/09/12 06:41:57;;;;;;;9.07;5.40;;;;;;;33.28;15.79;94501.97;5006705;28;20053;-61
2021/09/12 06:44:24;;;;;;;7.13;4.65;;;;;;;33.35;16.00;94509.19;5015259;28;20052;-63
2021/09/12 06:46:51;;;;;;;7.13;4.55;;;;;;;33.42;15.40;94501.63;5015590;28;20057;-59
2021/09/12 06:49:18;;;;;;;8.35;4.72;;;;;;;33.80;15.37;94517.19;5015413;28;20046;-61
2021/09/12 06:51:45;;;;;;;8.68;4.30;;;;;;;33.58;15.65;94508.16;5015635;28;20053;-62
2021/09/12 06:54:12;;;;;;;7.63;4.80;;;;;;;33.89;15.03;94516.59;5024962;28;20050;-58
2021/09/12 06:56:39;;;;;;;9.80;6.10;;;;;;;34.16;14.80;94516.16;4996544;28;20053;-62
2021/09/12 06:59:06;;;;;;;10.52;9.00;;;;;;;34.47;14.41;94516.38;5015390;28;20054;-58
2021/09/12 07:01:33;;;;;;;11.13;10.05;;;;;;;34.78;14.48;94511.84;5010363;28;20050;-64
2021/09/12 07:04:00;;;;;;;7.38;5.82;;;;;;;35.09;14.23;94506.56;5014840;28;20045;-63
2021/09/12 07:06:27;;;;;;;6.60;5.25;;;;;;;34.85;13.84;94511.63;5014904;28;20100;-55
2021/09/12 07:08:55;;;;;;;5.93;4.97;;;;;;;34.86;14.01;94510.44;5015088;28;20058;-55
2021/09/12 07:11:22;;;;;;;5.97;4.65;;;;;;;35.52;13.51;94514.00;5015181;28;20049;-57
2021/09/12 07:13:49;;;;;;;8.68;4.80;;;;;;;35.57;13.48;94520.81;5014703;28;20050;-56
2021/09/12 07:16:17;;;;;;;7.75;4.53;;;;;;;35.89;13.50;94514.22;5014780;28;20081;-55
2021/09/12 07:18:44;;;;;;;8.70;4.68;;;;;;;36.22;13.22;94503.66;5015607;28;20045;-58
2021/09/12 07:21:11;;;;;;;6.65;4.50;;;;;;;36.25;12.90;94512.88;5014552;28;20126;-58
2021/09/12 07:23:38;;;;;;;5.88;4.22;;;;;;;36.66;12.62;94514.34;5012035;28;20057;-57
2021/09/12 07:26:05;;;;;;;6.45;4.43;;;;;;;36.59;12.99;94509.22;5014615;28;20053;-56
2021/09/12 07:28:32;;;;;;;8.27;4.03;;;;;;;37.12;12.48;94512.47;5014352;28;20773;-56
2021/09/12 07:30:59;;;;;;;4.53;3.90;;;;;;;37.24;12.47;94503.41;5014785;28;20052;-58
2021/09/12 07:33:26;;;;;;;5.72;4.00;;;;;;;37.53;11.79;94510.34;5000874;28;20042;-56
2021/09/12 07:35:53;;;;;;;5.70;4.15;;;;;;;37.64;12.19;94514.09;5014791;28;20057;-58
2021/09/12 07:38:20;;;;;;;5.55;3.90;;;;;;;37.68;12.02;94500.31;5014738;28;20049;-57
2021/09/12 07:40:47;;;;;;;5.10;3.90;;;;;;;38.27;11.52;94506.25;5014243;28;20048;-56
2021/09/12 07:43:15;;;;;;;5.95;3.60;;;;;;;38.12;11.55;94508.09;5014112;28;20045;-60
2021/09/12 07:45:42;;;;;;;6.07;4.03;;;;;;;38.56;11.41;94506.38;5016067;28;20429;-59
2021/09/12 07:48:09;;;;;;;6.30;4.20;;;;;;;38.62;11.54;94505.75;5018763;28;20045;-61
2021/09/12 07:50:36;;;;;;;6.55;3.60;;;;;;;38.86;10.85;94503.78;5018710;28;20045;-57
2021/09/12 07:53:04;;;;;;;4.80;3.70;;;;;;;38.81;11.43;94502.47;5018130;28;20049;-59
2021/09/12 07:55:31;;;;;;;7.30;3.95;;;;;;;38.38;11.43;94503.75;5018477;28;20057;-58
2021/09/12 07:57:58;;;;;;;6.57;3.83;;;;;;;37.37;12.09;94488.88;5018113;28;20056;-57
2021/09/12 08:00:25;;;;;;;4.70;3.60;;;;;;;36.86;12.29;94494.91;5018412;28;20045;-60
2021/09/12 08:02:53;;;;;;;7.00;3.70;;;;;;;36.62;12.33;94492.72;5018130;28;20049;-58
2021/09/12 08:05:20;;;;;;;4.32;3.88;;;;;;;36.50;13.46;94490.16;5018181;28;20042;-55
2021/09/12 08:07:47;;;;;;;6.03;3.75;;;;;;;36.63;12.77;94486.06;5018539;28;20042;-58
2021/09/12 08:10:15;;;;;;;6.18;3.97;;;;;;;36.48;13.03;94485.16;5019371;28;20471;-57
2021/09/12 08:12:42;;;;;;;3.72;3.22;;;;;;;36.65;12.91;94489.09;5017653;28;20057;-57
2021/09/12 08:15:10;;;;;;;3.70;3.17;;;;;;;37.23;12.00;94491.00;5013692;28;20054;-57
2021/09/12 08:17:37;;;;;;;7.43;3.75;;;;;;;37.09;11.68;94483.41;4998863;28;20046;-57
2021/09/12 08:20:05;;;;;;;4.78;3.70;;;;;;;37.07;12.73;94483.13;4998718;28;20050;-57
2021/09/12 08:22:32;;;;;;;5.70;3.67;;;;;;;36.94;12.29;94485.22;5007979;28;20052;-58
2021/09/12 08:24:59;;;;;;;5.45;3.70;;;;;;;37.22;11.89;94494.94;5018104;28;20054;-58
2021/09/12 08:27:26;;;;;;;3.80;3.13;;;;;;;37.28;12.30;94486.91;5017526;28;20050;-57
2021/09/12 08:29:53;;;;;;;5.47;3.42;;;;;;;37.02;12.25;94481.75;5017963;28;20524;-57
2021/09/12 08:32:21;;;;;;;4.93;3.75;;;;;;;37.55;11.91;94477.94;5017429;28;20057;-58
2021/09/12 08:34:48;;;;;;;14.05;3.50;;;;;;;37.91;11.96;94485.28;5017871;28;20391;-60
2021/09/12 08:37:15;;;;;;;9.07;3.90;;;;;;;37.73;12.28;94477.91;5012010;28;20049;-60
2021/09/12 08:39:43;;;;;;;5.55;3.50;;;;;;;37.97;11.86;94475.25;4998823;28;20042;-59
2021/09/12 08:42:18;;;;;;;6.03;4.50;;;;;;;37.53;12.41;94474.91;5004316;28;20058;-60
2021/09/12 08:44:47;;;;;;;4.32;3.70;;;;;;;37.48;12.45;94472.81;5033123;28;20053;-60
2021/09/12 08:47:16;;;;;;;6.18;3.40;;;;;;;37.50;11.97;94471.13;5017750;28;20049;-58
2021/09/12 08:49:45;;;;;;;8.40;4.13;;;;;;;37.78;12.09;94474.56;5017608;28;20061;-60
2021/09/12 08:52:13;;;;;;;6.88;3.65;;;;;;;37.82;11.64;94461.53;5017337;28;20058;-60
2021/09/12 08:54:41;;;;;;;5.07;3.90;;;;;;;38.32;11.23;94455.72;5017548;28;20356;-62
2021/09/12 08:57:08;;;;;;;5.88;3.50;;;;;;;38.07;11.52;94462.34;5015861;28;20065;-62
2021/09/12 08:59:36;;;;;;;6.88;3.72;;;;;;;38.21;11.50;94458.94;5016377;28;20049;-59
2021/09/12 09:02:08;;;;;;;7.72;3.95;;;;;;;38.40;11.73;94462.34;5016633;28;20448;-60
2021/09/12 09:04:37;;;;;;;5.90;3.92;;;;;;;38.40;11.09;94457.63;5017203;28;20050;-60
2021/09/12 09:07:07;;;;;;;9.05;4.22;;;;;;;38.64;11.11;94449.47;5017377;28;20405;-63
2021/09/12 09:09:53;;;;;;;7.40;3.72;;;;;;;38.50;11.08;94450.13;5015696;28;20057;-62
2021/09/12 09:12:23;;;;;;;7.70;3.83;;;;;;;38.59;11.72;94446.59;5017282;28;20362;-60
2021/09/12 09:15:08;;;;;;;5.75;3.55;;;;;;;38.62;11.40;94442.94;5017188;28;20054;-59
2021/09/12 09:17:46;;;;;;;8.52;3.80;;;;;;;38.58;11.13;94436.91;5017131;28;20046;-57
2021/09/12 09:20:35;;;;;;;5.57;3.78;;;;;;;38.61;11.31;94441.44;5016727;28;20056;-57
2021/09/12 09:23:06;;;;;;;5.20;3.53;;;;;;;38.71;11.67;94442.88;5015943;28;20045;-56
2021/09/12 09:25:34;;;;;;;6.65;4.00;;;;;;;38.90;11.20;94438.78;5015471;28;20360;-57
2021/09/12 09:28:07;;;;;;;5.60;4.40;;;;;;;38.93;11.42;94435.13;5016338;28;20046;-57
2021/09/12 09:30:34;;;;;;;5.80;3.50;;;;;;;38.95;11.20;94429.19;5012517;28;20046;-56
2021/09/12 09:33:28;;;;;;;5.88;3.78;;;;;;;39.04;11.61;94442.78;5008815;28;20061;-60
2021/09/12 09:36:01;;;;;;;5.03;3.47;;;;;;;38.88;10.90;94430.31;5016816;28;20049;-58
2021/09/12 09:38:48;;;;;;;5.15;3.00;;;;;;;38.83;10.80;94422.78;5032422;28;20041;-56
2021/09/12 09:41:19;;;;;;;6.03;3.70;;;;;;;38.78;11.08;94426.16;5016583;28;20078;-61
2021/09/12 09:43:51;;;;;;;6.28;3.92;;;;;;;39.12;10.77;94424.81;5016555;28;20050;-58
2021/09/12 09:46:27;;;;;;;6.05;3.50;;;;;;;39.23;10.98;94427.00;5016432;28;20049;-57
2021/09/12 09:48:54;;;;;;;4.90;3.55;;;;;;;39.05;10.99;94425.94;5016522;28;20053;-58
2021/09/12 09:51:22;;;;;;;11.57;5.93;;;;;;;39.42;10.77;94417.38;5031547;28;20065;-58
2021/09/12 09:53:50;;;;;;;7.38;4.47;;;;;;;39.72;10.53;94413.41;5015301;28;20056;-58
2021/09/12 09:56:17;;;;;;;5.32;3.90;;;;;;;39.54;10.89;94413.63;5016778;28;20049;-56
2021/09/12 09:58:45;;;;;;;8.20;4.72;;;;;;;39.55;10.18;94406.16;5047020;28;20046;-59
2021/09/12 10:01:12;;;;;;;6.20;5.10;;;;;;;39.51;10.08;94414.56;5016096;28;20056;-55
2021/09/12 10:03:39;;;;;;;7.53;3.90;;;;;;;39.20;10.57;94411.53;5016075;28;20045;-56
2021/09/12 10:06:06;;;;;;;4.22;3.47;;;;;;;39.08;10.41;94400.41;5031678;28;20050;-57
2021/09/12 10:08:35;;;;;;;4.18;3.05;;;;;;;39.16;10.10;94401.53;5031218;28;20446;-55
2021/09/12 10:11:02;;;;;;;5.53;3.53;;;;;;;39.01;10.42;94389.81;5016048;28;20542;-55
2021/09/12 10:13:29;;;;;;;7.05;3.38;;;;;;;39.49;10.08;94386.91;5015841;28;20053;-57
2021/09/12 10:15:58;;;;;;;4.43;3.20;;;;;;;38.53;10.82;94400.81;5031501;28;20050;-58
2021/09/12 10:18:29;;;;;;;5.78;3.17;;;;;;;38.96;10.41;94398.66;5015870;28;20056;-58
2021/09/12 10:20:56;;;;;;;5.25;3.38;;;;;;;38.93;10.78;94388.69;5031168;28;20046;-60
2021/09/12 10:23:29;;;;;;;9.90;8.90;;;;;;;39.49;10.26;94389.66;5031051;28;20045;-59
2021/09/12 10:25:59;;;;;;;5.78;4.43;;;;;;;39.58;10.24;94392.31;5015702;28;20461;-57
2021/09/12 10:28:30;;;;;;;;;;;;;;;39.25;10.16;94391.72;5015614;28;20392;-59
2021/09/12 10:30:58;;;;;;;7.50;3.78;;;;;;;39.47;10.03;94392.09;5015576;28;19925;-57
2021/09/12 10:33:26;;;;;;;5.40;3.55;;;;;;;39.31;9.89;94396.09;5015542;28;20049;-60
2021/09/12 10:35:56;;;;;;;3.72;3.28;;;;;;;39.33;10.12;94387.41;5015579;28;20057;-58
2021/09/12 10:38:32;;;;;;;4.93;3.37;;;;;;;39.65;9.90;94386.47;5012124;28;20050;-60
2021/09/12 10:41:02;;;;;;;4.93;3.42;;;;;;;39.85;9.98;94380.28;5006390;28;20048;-58
2021/09/12 10:43:33;;;;;;;4.75;3.03;;;;;;;39.94;9.93;94379.41;5015429;28;20384;-59
2021/09/12 10:46:03;;;;;;;4.03;3.10;;;;;;;38.85;10.31;94382.09;5015564;28;20061;-57
2021/09/12 10:48:31;;;;;;;7.43;3.08;;;;;;;39.37;10.00;94366.84;5015557;28;20388;-58
2021/09/12 10:51:00;;;;;;;6.25;3.05;;;;;;;38.82;9.94;94378.31;5009971;28;20046;-56
2021/09/12 10:53:46;;;;;;;5.97;5.40;;;;;;;39.08;9.91;94372.34;5008440;28;20360;-59
2021/09/12 10:56:31;;;;;;;5.63;3.85;;;;;;;38.79;10.11;94375.78;5015128;28;20058;-57
2021/09/12 10:59:00;;;;;;;4.47;2.97;;;;;;;38.91;10.09;94369.28;4995637;28;20065;-61
2021/09/12 11:01:33;;;;;;;3.88;3.10;;;;;;;39.03;10.15;94368.22;5009171;28;20046;-56
2021/09/12 11:04:01;;;;;;;4.55;3.40;;;;;;;39.27;9.99;94378.34;5014919;28;20824;-55
2021/09/12 11:06:36;;;;;;;4.13;3.05;;;;;;;39.42;10.10;94357.22;5015297;28;20053;-58
2021/09/12 11:09:15;;;;;;;4.88;3.30;;;;;;;39.58;10.00;94367.72;5014908;28;20453;-58
2021/09/12 11:11:42;;;;;;;7.97;3.70;;;;;;;39.08;9.95;94373.09;5014947;28;20053;-56
2021/09/12 11:14:17;;;;;;;6.40;3.20;;;;;;;39.09;10.08;94368.38;5015214;28;20046;-56
2021/09/12 11:16:44;;;;;;;5.07;3.17;;;;;;;38.98;10.35;94357.22;5015335;28;20056;-59
2021/09/12 11:19:12;;;;;;;4.70;3.17;;;;;;;38.95;9.90;94347.97;5014856;28;20053;-56
2021/09/12 11:21:44;;;;;;;5.13;3.55;;;;;;;38.93;10.28;94349.69;5014285;28;20361;-56
2021/09/12 11:24:14;;;;;;;4.88;3.33;;;;;;;38.66;10.21;94347.94;5014552;28;20054;-55
2021/09/12 11:26:47;;;;;;;5.00;3.10;;;;;;;38.80;10.05;94341.75;5014092;28;20049;-56
2021/09/12 11:29:19;;;;;;;5.13;3.80;;;;;;;38.35;10.89;94346.34;5014894;28;20065;-57
2021/09/12 11:31:55;;;;;;;3.80;3.08;;;;;;;38.53;10.21;94340.75;5002502;28;20046;-56
2021/09/12 11:34:23;;;;;;;6.40;5.30;;;;;;;38.31;10.27;94345.03;5012672;28;20042;-58
2021/09/12 11:36:55;;;;;;;8.85;4.30;;;;;;;38.22;10.77;94338.38;5015112;28;20054;-56
2021/09/12 11:39:27;;;;;;;6.30;3.28;;;;;;;38.21;10.28;94345.06;5014686;28;20038;-55